createdAt,value
2019-04-26T00:01:38.700Z,17.70
2019-04-26T00:04:07.743Z,17.60
2019-04-26T00:06:37.734Z,17.60
2019-04-26T00:09:13.964Z,17.60
2019-04-26T00:11:53.492Z,17.60
2019-04-26T00:14:29.632Z,17.60
2019-04-26T00:16:59.970Z,17.60
2019-04-26T00:19:29.019Z,17.60
2019-04-26T00:21:58.112Z,17.50
2019-04-26T00:24:28.492Z,17.50
2019-04-26T00:26:57.254Z,17.50
2019-04-26T00:29:25.572Z,17.40
2019-04-26T00:31:54.303Z,17.40
2019-04-26T00:34:22.645Z,17.40
2019-04-26T00:36:51.036Z,17.30
2019-04-26T00:39:20.332Z,17.40
2019-04-26T00:41:49.098Z,17.40
2019-04-26T00:44:18.606Z,17.30
2019-04-26T00:46:47.383Z,17.30
2019-04-26T00:49:17.031Z,17.30
2019-04-26T00:51:46.135Z,17.20
2019-04-26T00:54:15.497Z,17.20
2019-04-26T00:56:44.253Z,17.30
2019-04-26T00:59:14.913Z,17.40
2019-04-26T01:01:44.798Z,17.40
2019-04-26T01:04:14.550Z,17.40
2019-04-26T01:06:45.517Z,17.40
2019-04-26T01:09:15.887Z,17.40
2019-04-26T01:11:44.431Z,17.30
2019-04-26T01:14:13.035Z,17.40
2019-04-26T01:16:41.423Z,17.40
2019-04-26T01:19:10.187Z,17.40
2019-04-26T01:21:44.661Z,17.40
2019-04-26T01:24:13.277Z,17.40
2019-04-26T01:26:41.860Z,17.40
2019-04-26T01:29:13.966Z,17.40
2019-04-26T01:31:48.431Z,17.40
2019-04-26T01:34:17.742Z,17.30
2019-04-26T01:36:47.483Z,17.30
2019-04-26T01:39:19.670Z,17.30
2019-04-26T01:41:51.002Z,17.30
2019-04-26T01:44:40.619Z,17.30
2019-04-26T01:47:09.223Z,17.20
2019-04-26T01:49:37.833Z,17.20
2019-04-26T01:52:10.347Z,17.10
2019-04-26T01:54:41.616Z,17.00
2019-04-26T01:57:10.379Z,17.00
2019-04-26T01:59:39.662Z,17.00
2019-04-26T02:02:25.643Z,17.00
2019-04-26T02:04:58.814Z,17.00
2019-04-26T02:07:29.125Z,16.90
2019-04-26T02:09:57.723Z,16.90
2019-04-26T02:12:26.733Z,16.80
2019-04-26T02:14:55.418Z,16.80
2019-04-26T02:17:24.502Z,16.60
2019-04-26T02:19:53.985Z,16.70
2019-04-26T02:22:40.765Z,16.70
2019-04-26T02:25:09.367Z,16.70
2019-04-26T02:27:37.942Z,16.60
2019-04-26T02:30:08.119Z,16.50
2019-04-26T02:32:37.224Z,16.50
2019-04-26T02:35:06.586Z,16.50
2019-04-26T02:37:36.741Z,16.50
2019-04-26T02:40:08.979Z,16.50
2019-04-26T02:42:39.653Z,16.30
2019-04-26T02:45:34.767Z,16.30
2019-04-26T02:48:16.771Z,16.30
2019-04-26T02:50:53.017Z,16.30
2019-04-26T02:53:38.714Z,16.20
2019-04-26T02:56:10.921Z,16.20
2019-04-26T02:58:58.026Z,16.20
2019-04-26T03:01:29.330Z,16.10
2019-04-26T03:03:57.534Z,16.10
2019-04-26T03:06:26.216Z,16.00
2019-04-26T03:08:55.672Z,16.00
2019-04-26T03:11:27.071Z,15.90
2019-04-26T03:13:57.654Z,15.90
2019-04-26T03:16:33.364Z,15.90
2019-04-26T03:19:10.758Z,15.90
2019-04-26T03:22:06.962Z,15.90
2019-04-26T03:24:40.480Z,15.90
2019-04-26T03:27:35.886Z,15.80
2019-04-26T03:30:21.649Z,15.80
2019-04-26T03:32:54.018Z,15.90
2019-04-26T03:35:29.511Z,15.80
2019-04-26T03:38:21.003Z,15.80
2019-04-26T03:41:03.108Z,15.80
2019-04-26T03:43:51.762Z,15.80
2019-04-26T03:46:35.530Z,15.90
2019-04-26T03:49:24.715Z,15.80
2019-04-26T03:52:06.415Z,15.80
2019-04-26T03:54:36.912Z,15.80
2019-04-26T03:57:38.779Z,15.70
2019-04-26T04:00:23.269Z,15.70
2019-04-26T04:03:28.958Z,15.70
2019-04-26T04:05:59.101Z,15.80
2019-04-26T04:08:30.989Z,15.80
2019-04-26T04:11:06.040Z,15.80
2019-04-26T04:13:54.891Z,15.80
2019-04-26T04:16:30.592Z,15.80
2019-04-26T04:19:02.479Z,15.80
2019-04-26T04:21:40.693Z,15.80
2019-04-26T04:24:14.493Z,15.80
2019-04-26T04:26:55.706Z,15.80
2019-04-26T04:29:42.941Z,15.80
2019-04-26T04:32:32.995Z,15.80
2019-04-26T04:35:10.821Z,15.70
2019-04-26T04:38:08.613Z,15.70
2019-04-26T04:40:58.790Z,15.70
2019-04-26T04:43:37.982Z,15.70
2019-04-26T04:46:17.674Z,15.70
2019-04-26T04:49:11.812Z,15.70
2019-04-26T04:51:49.891Z,15.70
2019-04-26T04:54:20.975Z,15.70
2019-04-26T04:57:10.622Z,15.80
2019-04-26T04:59:50.850Z,15.80
2019-04-26T05:02:26.946Z,15.90
2019-04-26T05:05:06.320Z,15.90
2019-04-26T05:08:06.752Z,15.90
2019-04-26T05:10:39.976Z,15.90
2019-04-26T05:13:11.958Z,16.00
2019-04-26T05:16:20.256Z,16.00
2019-04-26T05:19:13.242Z,15.90
2019-04-26T05:22:07.969Z,16.10
2019-04-26T05:24:56.370Z,16.00
2019-04-26T05:27:48.241Z,16.00
2019-04-26T05:30:39.484Z,16.00
2019-04-26T05:33:11.535Z,15.90
2019-04-26T05:36:07.259Z,15.90
2019-04-26T05:38:58.427Z,15.90
2019-04-26T05:41:53.535Z,15.90
2019-04-26T05:45:06.328Z,16.00
2019-04-26T05:47:38.844Z,15.90
2019-04-26T05:50:33.770Z,15.90
2019-04-26T05:53:31.269Z,16.00
2019-04-26T05:56:11.021Z,15.90
2019-04-26T05:59:10.005Z,15.90
2019-04-26T06:02:21.056Z,16.00
2019-04-26T06:05:14.959Z,15.90
2019-04-26T06:08:03.079Z,16.20
2019-04-26T06:10:45.641Z,16.40
2019-04-26T06:13:30.936Z,16.50
2019-04-26T06:16:26.967Z,16.70
2019-04-26T06:19:18.425Z,16.70
2019-04-26T06:22:10.815Z,16.60
2019-04-26T06:24:45.170Z,16.40
2019-04-26T06:27:38.573Z,16.30
2019-04-26T06:30:17.178Z,16.20
2019-04-26T06:33:00.952Z,16.10
2019-04-26T06:35:25.372Z,16.10
2019-04-26T06:38:23.665Z,16.10
2019-04-26T06:41:04.915Z,16.10
2019-04-26T06:43:42.729Z,16.10
2019-04-26T06:46:33.999Z,16.20
2019-04-26T06:49:25.192Z,16.00
2019-04-26T06:51:57.512Z,16.00
2019-04-26T06:54:33.351Z,16.10
2019-04-26T06:57:38.248Z,16.10
2019-04-26T07:00:13.660Z,16.20
2019-04-26T07:03:05.679Z,16.30
2019-04-26T07:05:36.252Z,16.40
2019-04-26T07:08:17.126Z,16.40
2019-04-26T07:11:01.238Z,16.50
2019-04-26T07:13:59.331Z,16.50
2019-04-26T07:16:41.136Z,16.60
2019-04-26T07:19:49.539Z,16.60
2019-04-26T07:22:35.652Z,16.60
2019-04-26T07:25:36.192Z,16.50
2019-04-26T07:28:24.693Z,16.50
2019-04-26T07:31:18.137Z,16.60
2019-04-26T07:34:22.142Z,16.60
2019-04-26T07:37:11.405Z,16.60
2019-04-26T07:40:11.610Z,16.40
2019-04-26T07:43:06.424Z,16.40
2019-04-26T07:45:52.071Z,16.40
2019-04-26T07:48:23.118Z,16.40
2019-04-26T07:51:11.636Z,16.40
2019-04-26T07:53:43.327Z,16.50
2019-04-26T07:56:34.621Z,16.60
2019-04-26T07:59:38.528Z,16.60
2019-04-26T08:02:29.354Z,16.50
2019-04-26T08:05:19.341Z,16.50
2019-04-26T08:07:54.005Z,16.50
2019-04-26T08:10:22.683Z,16.60
2019-04-26T08:12:54.561Z,16.70
2019-04-26T08:15:40.148Z,16.70
2019-04-26T08:18:13.502Z,16.70
2019-04-26T08:20:52.715Z,16.60
2019-04-26T08:23:39.218Z,16.60
2019-04-26T08:25:56.430Z,16.70
2019-04-26T08:28:25.113Z,16.50
2019-04-26T08:30:55.195Z,16.50
2019-04-26T08:33:27.519Z,16.60
2019-04-26T08:35:56.187Z,16.70
2019-04-26T08:38:25.066Z,16.80
2019-04-26T08:40:53.717Z,16.80
2019-04-26T08:43:35.971Z,16.90
2019-04-26T08:46:12.573Z,16.90
2019-04-26T08:48:41.177Z,16.90
2019-04-26T08:51:21.847Z,16.90
2019-04-26T08:53:50.876Z,17.00
2019-04-26T08:56:28.400Z,17.00
2019-04-26T08:59:00.279Z,17.00
2019-04-26T09:01:30.535Z,17.00
2019-04-26T09:04:00.864Z,17.00
2019-04-26T09:06:39.967Z,16.80
2019-04-26T09:09:14.402Z,16.80
2019-04-26T09:11:41.665Z,16.80
2019-04-26T09:14:10.554Z,16.70
2019-04-26T09:16:49.858Z,16.80
2019-04-26T09:19:09.554Z,16.80
2019-04-26T09:21:38.904Z,16.90
2019-04-26T09:24:27.424Z,17.00
2019-04-26T09:27:06.644Z,16.80
2019-04-26T09:29:36.996Z,16.70
2019-04-26T09:32:10.037Z,16.60
2019-04-26T09:34:41.540Z,16.30
2019-04-26T09:37:10.976Z,16.20
2019-04-26T09:39:41.570Z,16.20
2019-04-26T09:42:26.658Z,16.20
2019-04-26T09:45:11.991Z,16.10
2019-04-26T09:47:48.068Z,16.30
2019-04-26T09:50:24.143Z,16.50
2019-04-26T09:52:54.302Z,16.60
2019-04-26T09:55:34.540Z,16.80
2019-04-26T09:57:53.484Z,16.80
2019-04-26T10:00:30.609Z,16.80
2019-04-26T10:02:59.378Z,16.70
2019-04-26T10:05:27.696Z,16.60
2019-04-26T10:07:56.317Z,16.70
2019-04-26T10:10:26.354Z,16.90
2019-04-26T10:12:56.607Z,16.90
2019-04-26T10:15:29.800Z,17.00
2019-04-26T10:17:59.170Z,17.20
2019-04-26T10:20:27.827Z,17.40
2019-04-26T10:22:56.356Z,17.30
2019-04-26T10:25:24.682Z,17.20
2019-04-26T10:27:53.371Z,17.20
2019-04-26T10:30:21.697Z,17.30
2019-04-26T10:32:50.097Z,17.40
2019-04-26T10:35:21.737Z,17.60
2019-04-26T10:37:49.287Z,17.60
2019-04-26T10:40:18.397Z,17.40
2019-04-26T10:42:46.116Z,17.50
2019-04-26T10:45:16.326Z,17.40
2019-04-26T10:47:45.131Z,17.30
2019-04-26T10:50:13.825Z,17.40
2019-04-26T10:52:45.694Z,17.30
2019-04-26T10:55:21.114Z,17.40
2019-04-26T10:57:55.852Z,17.50
2019-04-26T11:00:38.137Z,17.50
2019-04-26T11:03:06.823Z,17.40
2019-04-26T11:05:35.204Z,17.30
2019-04-26T11:08:03.774Z,17.10
2019-04-26T11:10:31.407Z,17.10
2019-04-26T11:13:00.028Z,17.20
2019-04-26T11:15:29.115Z,17.10
2019-04-26T11:17:57.683Z,17.20
2019-04-26T11:20:26.302Z,17.30
2019-04-26T11:22:54.003Z,17.40
2019-04-26T11:25:24.705Z,17.50
2019-04-26T11:27:53.073Z,17.60
2019-04-26T11:30:21.362Z,17.70
2019-04-26T11:32:49.234Z,18.00
2019-04-26T11:35:17.831Z,17.80
2019-04-26T11:37:46.451Z,17.60
2019-04-26T11:40:15.875Z,17.40
2019-04-26T11:42:45.762Z,17.40
2019-04-26T11:45:16.101Z,17.30
2019-04-26T11:47:55.477Z,17.40
2019-04-26T11:50:16.057Z,17.60
2019-04-26T11:52:45.274Z,17.40
2019-04-26T11:55:14.897Z,17.60
2019-04-26T11:57:43.664Z,17.50
2019-04-26T12:00:15.100Z,17.70
2019-04-26T12:02:46.323Z,17.90
2019-04-26T12:05:31.341Z,17.90
2019-04-26T12:08:07.451Z,17.90
2019-04-26T12:10:36.127Z,17.60
2019-04-26T12:13:05.961Z,17.50
2019-04-26T12:15:34.968Z,17.80
2019-04-26T12:18:05.606Z,17.80
2019-04-26T12:20:33.917Z,17.50
2019-04-26T12:23:02.568Z,17.50
2019-04-26T12:25:31.175Z,17.70
2019-04-26T12:28:02.053Z,17.90
2019-04-26T12:30:30.003Z,18.10
2019-04-26T12:32:57.752Z,18.30
2019-04-26T12:35:26.438Z,18.30
2019-04-26T12:37:55.819Z,18.30
2019-04-26T12:40:24.543Z,18.00
2019-04-26T12:42:53.023Z,18.30
2019-04-26T12:45:25.320Z,18.30
2019-04-26T12:47:55.337Z,18.30
2019-04-26T12:50:24.021Z,18.20
2019-04-26T12:52:55.830Z,18.30
2019-04-26T12:55:21.952Z,18.30
2019-04-26T12:57:49.688Z,18.30
2019-04-26T13:00:20.058Z,18.30
2019-04-26T13:02:50.140Z,18.30
2019-04-26T13:05:20.548Z,18.10
2019-04-26T13:07:53.889Z,18.00
2019-04-26T13:10:44.798Z,17.90
2019-04-26T13:13:23.500Z,17.60
2019-04-26T13:16:06.164Z,17.50
2019-04-26T13:18:34.862Z,17.40
2019-04-26T13:21:04.340Z,17.20
2019-04-26T13:23:33.234Z,17.20
2019-04-26T13:26:01.771Z,17.40
2019-04-26T13:28:30.525Z,17.40
2019-04-26T13:31:01.911Z,17.60
2019-04-26T13:33:29.292Z,17.70
2019-04-26T13:36:04.109Z,17.90
2019-04-26T13:38:27.122Z,18.20
2019-04-26T13:40:55.498Z,18.20
2019-04-26T13:43:26.996Z,18.10
2019-04-26T13:45:56.043Z,18.10
2019-04-26T13:48:39.142Z,18.20
2019-04-26T13:51:16.087Z,18.40
2019-04-26T13:53:44.808Z,18.70
2019-04-26T13:56:12.444Z,18.80
2019-04-26T13:58:41.121Z,18.60
2019-04-26T14:01:09.516Z,18.50
2019-04-26T14:03:37.183Z,18.20
2019-04-26T14:06:05.803Z,17.90
2019-04-26T14:08:34.196Z,17.90
2019-04-26T14:11:02.608Z,17.90
2019-04-26T14:13:31.214Z,17.90
2019-04-26T14:15:59.030Z,17.90
2019-04-26T14:18:28.244Z,17.70
2019-04-26T14:20:58.910Z,18.20
2019-04-26T14:23:34.651Z,18.50
2019-04-26T14:26:10.781Z,18.50
2019-04-26T14:28:41.914Z,18.50
2019-04-26T14:31:12.332Z,19.10
2019-04-26T14:33:40.220Z,21.10
2019-04-26T14:36:17.496Z,21.30
2019-04-26T14:38:40.229Z,21.30
2019-04-26T14:41:08.485Z,20.20
2019-04-26T14:43:40.892Z,19.30
2019-04-26T14:46:10.356Z,18.70
2019-04-26T14:48:40.533Z,18.90
2019-04-26T14:51:12.017Z,19.70
2019-04-26T14:53:38.656Z,20.90
2019-04-26T14:56:07.420Z,22.00
2019-04-26T14:58:36.209Z,23.00
2019-04-26T15:01:15.632Z,23.20
2019-04-26T15:03:45.966Z,23.40
2019-04-26T15:06:23.675Z,24.20
2019-04-26T15:08:53.115Z,24.20
2019-04-26T15:11:22.939Z,22.20
2019-04-26T15:13:51.810Z,22.40
2019-04-26T15:16:22.240Z,22.00
2019-04-26T15:18:52.448Z,22.50
2019-04-26T15:21:22.832Z,22.60
2019-04-26T15:23:55.432Z,23.70
2019-04-26T15:26:27.439Z,23.50
2019-04-26T15:28:52.685Z,23.00
2019-04-26T15:31:24.695Z,22.00
2019-04-26T15:33:52.833Z,22.70
2019-04-26T15:36:23.136Z,22.50
2019-04-26T15:38:52.815Z,22.90
2019-04-26T15:41:29.255Z,21.70
2019-04-26T15:44:02.718Z,20.60
2019-04-26T15:46:49.902Z,20.40
2019-04-26T15:49:36.514Z,19.60
2019-04-26T15:52:02.944Z,18.80
2019-04-26T15:54:32.360Z,18.10
2019-04-26T15:57:02.179Z,17.80
2019-04-26T15:59:30.910Z,17.80
2019-04-26T16:01:59.288Z,17.60
2019-04-26T16:04:27.699Z,17.20
2019-04-26T16:06:56.381Z,16.50
2019-04-26T16:09:25.081Z,16.40
2019-04-26T16:11:55.295Z,16.00
2019-04-26T16:14:26.465Z,16.00
2019-04-26T16:16:54.399Z,15.90
2019-04-26T16:19:26.676Z,15.60
2019-04-26T16:21:55.273Z,15.80
2019-04-26T16:24:24.098Z,15.90
2019-04-26T16:26:56.142Z,15.60
2019-04-26T16:29:28.624Z,15.60
2019-04-26T16:31:58.935Z,15.60
2019-04-26T16:34:32.475Z,15.30
2019-04-26T16:37:02.951Z,15.30
2019-04-26T16:39:38.270Z,15.40
2019-04-26T16:42:05.165Z,15.50
2019-04-26T16:44:33.470Z,15.50
2019-04-26T16:47:05.703Z,15.30
2019-04-26T16:49:35.172Z,15.30
2019-04-26T16:52:06.822Z,15.40
2019-04-26T16:54:34.334Z,15.30
2019-04-26T16:57:06.380Z,15.50
2019-04-26T16:59:33.452Z,15.50
2019-04-26T17:02:02.805Z,15.40
2019-04-26T17:04:35.148Z,15.40
2019-04-26T17:07:04.795Z,15.20
2019-04-26T17:09:54.280Z,15.10
2019-04-26T17:12:02.665Z,15.10
2019-04-26T17:14:33.970Z,15.00
2019-04-26T17:17:03.168Z,14.90
2019-04-26T17:19:34.287Z,15.00
2019-04-26T17:22:15.989Z,14.80
2019-04-26T17:24:49.407Z,14.70
2019-04-26T17:27:19.739Z,14.60
2019-04-26T17:29:48.422Z,14.60
2019-04-26T17:32:17.452Z,14.40
2019-04-26T17:34:47.459Z,14.20
2019-04-26T17:37:17.470Z,14.20
2019-04-26T17:39:47.513Z,14.20
2019-04-26T17:42:16.713Z,14.20
2019-04-26T17:44:45.415Z,14.20
2019-04-26T17:47:14.121Z,14.10
2019-04-26T17:49:44.009Z,14.20
2019-04-26T17:52:12.812Z,14.10
2019-04-26T17:54:46.699Z,14.10
2019-04-26T17:57:14.405Z,14.10
2019-04-26T17:59:47.690Z,14.00
2019-04-26T18:02:25.858Z,14.10
2019-04-26T18:04:43.238Z,14.10
2019-04-26T18:07:36.098Z,14.10
2019-04-26T18:09:46.544Z,14.10
2019-04-26T18:12:12.783Z,14.00
2019-04-26T18:14:41.189Z,13.90
2019-04-26T18:17:11.505Z,13.90
2019-04-26T18:19:47.831Z,13.90
2019-04-26T18:22:28.506Z,13.80
2019-04-26T18:24:57.458Z,13.70
2019-04-26T18:27:29.826Z,13.80
2019-04-26T18:29:59.839Z,13.90
2019-04-26T18:32:27.149Z,14.00
2019-04-26T18:34:55.762Z,13.90
2019-04-26T18:37:24.433Z,13.80
2019-04-26T18:39:53.527Z,13.80
2019-04-26T18:42:22.355Z,13.70
2019-04-26T18:44:51.058Z,13.70
2019-04-26T18:47:27.456Z,13.70
2019-04-26T18:49:57.983Z,13.70
2019-04-26T18:52:26.042Z,13.60
2019-04-26T18:55:05.775Z,13.60
2019-04-26T18:57:34.580Z,13.70
2019-04-26T19:00:04.203Z,13.70
2019-04-26T19:02:33.350Z,13.40
2019-04-26T19:05:05.676Z,13.40
2019-04-26T19:07:34.687Z,13.30
2019-04-26T19:10:05.597Z,13.40
2019-04-26T19:12:34.649Z,13.30
2019-04-26T19:15:22.099Z,13.40
2019-04-26T19:17:52.432Z,13.30
2019-04-26T19:20:39.579Z,13.30
2019-04-26T19:23:09.361Z,13.30
2019-04-26T19:25:40.845Z,13.20
2019-04-26T19:28:09.106Z,13.20
2019-04-26T19:30:39.950Z,13.10
2019-04-26T19:33:11.510Z,12.90
2019-04-26T19:35:39.395Z,13.00
2019-04-26T19:38:13.312Z,13.00
2019-04-26T19:40:46.353Z,13.10
2019-04-26T19:43:12.441Z,13.20
2019-04-26T19:45:47.025Z,13.10
2019-04-26T19:48:20.446Z,13.30
2019-04-26T19:50:52.716Z,13.30
2019-04-26T19:53:24.928Z,13.30
2019-04-26T19:55:58.389Z,13.20
2019-04-26T19:58:28.661Z,13.10
2019-04-26T20:00:57.341Z,13.10
2019-04-26T20:03:26.067Z,13.10
2019-04-26T20:05:54.467Z,13.20
2019-04-26T20:08:23.522Z,13.10
2019-04-26T20:10:52.356Z,13.00
2019-04-26T20:13:22.038Z,13.20
2019-04-26T20:15:53.042Z,13.20
2019-04-26T20:18:21.897Z,13.10
2019-04-26T20:20:52.114Z,13.20
2019-04-26T20:23:22.721Z,13.20
2019-04-26T20:25:53.060Z,13.10
2019-04-26T20:28:22.898Z,13.00
2019-04-26T20:31:08.602Z,13.10
2019-04-26T20:33:36.569Z,13.00
2019-04-26T20:36:05.346Z,13.10
2019-04-26T20:38:42.844Z,13.10
2019-04-26T20:41:04.564Z,13.00
2019-04-26T20:43:36.317Z,13.10
2019-04-26T20:46:14.041Z,13.10
2019-04-26T20:48:39.808Z,13.00
2019-04-26T20:51:10.863Z,13.10
2019-04-26T20:53:41.339Z,13.10
2019-04-26T20:56:16.243Z,13.10
2019-04-26T20:58:43.305Z,13.10
2019-04-26T21:01:14.099Z,13.10
2019-04-26T21:03:45.786Z,13.10
2019-04-26T21:06:12.853Z,13.00
2019-04-26T21:08:42.427Z,13.10
2019-04-26T21:11:13.708Z,13.00
2019-04-26T21:13:42.296Z,13.10
2019-04-26T21:16:15.339Z,13.10
2019-04-26T21:18:44.274Z,13.00
2019-04-26T21:21:15.689Z,13.00
2019-04-26T21:23:44.022Z,13.00
2019-04-26T21:26:17.650Z,12.90
2019-04-26T21:28:48.203Z,13.00
2019-04-26T21:31:24.852Z,12.90
2019-04-26T21:34:07.937Z,12.90
2019-04-26T21:36:46.068Z,13.00
2019-04-26T21:39:19.625Z,13.10
2019-04-26T21:41:50.274Z,13.00
2019-04-26T21:44:19.274Z,13.10
2019-04-26T21:46:49.653Z,13.20
2019-04-26T21:49:20.746Z,13.10
2019-04-26T21:51:52.119Z,13.20
2019-04-26T21:54:19.481Z,13.20
2019-04-26T21:56:49.607Z,13.20
2019-04-26T21:59:18.503Z,13.10
2019-04-26T22:01:48.303Z,13.00
2019-04-26T22:04:17.815Z,12.90
2019-04-26T22:06:46.499Z,12.90
2019-04-26T22:09:28.625Z,12.90
2019-04-26T22:11:56.540Z,12.90
2019-04-26T22:14:25.939Z,12.80
2019-04-26T22:17:08.169Z,12.80
2019-04-26T22:19:38.743Z,12.70
2019-04-26T22:22:09.388Z,12.70
2019-04-26T22:24:39.640Z,12.80
2019-04-26T22:27:08.333Z,12.70
2019-04-26T22:29:36.978Z,12.70
2019-04-26T22:32:05.948Z,12.80
2019-04-26T22:34:37.258Z,12.70
2019-04-26T22:37:11.155Z,12.80
2019-04-26T22:39:39.838Z,12.80
2019-04-26T22:42:05.447Z,12.90
2019-04-26T22:44:36.102Z,12.80
2019-04-26T22:47:09.635Z,12.80
2019-04-26T22:49:41.618Z,12.90
2019-04-26T22:52:11.215Z,12.90
2019-04-26T22:54:44.674Z,12.90
2019-04-26T22:57:13.162Z,12.80
2019-04-26T22:59:43.311Z,12.90
2019-04-26T23:02:13.814Z,12.90
2019-04-26T23:04:42.988Z,12.90
2019-04-26T23:10:17.588Z,12.90
2019-04-26T23:12:51.008Z,12.80
2019-04-26T23:15:37.979Z,12.80
2019-04-26T23:18:20.897Z,12.80
2019-04-26T23:20:57.621Z,12.80
2019-04-26T23:23:26.552Z,12.80
2019-04-26T23:25:55.181Z,12.90
2019-04-26T23:28:27.627Z,12.90
2019-04-26T23:30:54.700Z,12.90
2019-04-26T23:33:23.965Z,12.90
2019-04-26T23:35:53.193Z,12.90
2019-04-26T23:38:23.412Z,12.90
2019-04-26T23:40:52.540Z,12.80
2019-04-26T23:43:22.496Z,12.80
2019-04-26T23:45:53.029Z,12.80
2019-04-26T23:48:21.756Z,12.80
2019-04-26T23:50:50.446Z,12.80
2019-04-26T23:53:20.199Z,12.80
2019-04-26T23:55:49.430Z,12.80
2019-04-26T23:58:18.109Z,12.80
